createdAt,value
2023-03-12T00:00:42.555Z,8.90
2023-03-12T00:03:11.135Z,8.90
2023-03-12T00:05:41.795Z,8.90
2023-03-12T00:08:11.028Z,8.90
2023-03-12T00:10:41.376Z,8.80
2023-03-12T00:13:09.818Z,8.70
2023-03-12T00:15:39.085Z,8.60
2023-03-12T00:18:07.581Z,8.70
2023-03-12T00:20:36.028Z,8.70
2023-03-12T00:23:05.719Z,8.70
2023-03-12T00:25:34.126Z,8.70
2023-03-12T00:28:02.471Z,8.70
2023-03-12T00:30:30.814Z,8.60
2023-03-12T00:32:59.087Z,8.70
2023-03-12T00:35:27.399Z,8.60
2023-03-12T00:37:55.730Z,8.50
2023-03-12T00:40:25.448Z,8.50
2023-03-12T00:42:53.723Z,8.50
2023-03-12T00:45:22.106Z,8.50
2023-03-12T00:47:51.030Z,8.40
2023-03-12T00:50:19.452Z,8.40
2023-03-12T00:52:47.810Z,8.50
2023-03-12T00:55:16.216Z,8.40
2023-03-12T00:57:45.946Z,8.50
2023-03-12T01:00:15.032Z,8.50
2023-03-12T01:02:43.311Z,8.40
2023-03-12T01:05:14.157Z,8.40
2023-03-12T01:07:42.742Z,8.30
2023-03-12T01:10:13.304Z,8.30
2023-03-12T01:12:41.798Z,8.20
2023-03-12T01:15:14.332Z,8.30
2023-03-12T01:17:42.690Z,8.20
2023-03-12T01:20:12.522Z,8.20
2023-03-12T01:22:41.084Z,8.20
2023-03-12T01:25:10.252Z,8.10
2023-03-12T01:27:38.488Z,8.00
2023-03-12T01:30:08.081Z,8.00
2023-03-12T01:32:38.073Z,8.00
2023-03-12T01:35:07.336Z,8.00
2023-03-12T01:37:35.832Z,7.90
2023-03-12T01:40:04.857Z,7.90
2023-03-12T01:42:33.138Z,7.90
2023-03-12T01:45:04.393Z,7.90
2023-03-12T01:47:33.066Z,7.80
2023-03-12T01:50:03.533Z,7.90
2023-03-12T01:52:35.104Z,7.80
2023-03-12T01:55:06.771Z,7.80
2023-03-12T01:57:39.184Z,7.70
2023-03-12T02:00:11.989Z,7.70
2023-03-12T02:02:41.258Z,7.70
2023-03-12T02:05:16.987Z,7.70
2023-03-12T02:07:45.444Z,7.70
2023-03-12T02:10:14.275Z,7.70
2023-03-12T02:12:42.572Z,7.70
2023-03-12T02:15:11.907Z,7.70
2023-03-12T02:17:40.680Z,7.70
2023-03-12T02:20:18.430Z,7.70
2023-03-12T02:22:52.632Z,7.70
2023-03-12T02:25:31.406Z,7.70
2023-03-12T02:28:01.727Z,7.70
2023-03-12T02:30:32.133Z,7.70
2023-03-12T02:33:02.697Z,7.70
2023-03-12T02:35:31.031Z,7.70
2023-03-12T02:37:59.583Z,7.70
2023-03-12T02:40:36.764Z,7.70
2023-03-12T02:43:08.943Z,7.70
2023-03-12T02:45:38.088Z,7.70
2023-03-12T02:48:10.221Z,7.70
2023-03-12T02:50:38.559Z,7.70
2023-03-12T02:53:06.882Z,7.70
2023-03-12T02:55:36.598Z,7.70
2023-03-12T02:58:04.860Z,7.70
2023-03-12T03:00:33.201Z,7.70
2023-03-12T03:03:01.780Z,7.80
2023-03-12T03:05:30.093Z,7.80
2023-03-12T03:07:58.423Z,7.70
2023-03-12T03:10:26.735Z,7.80
2023-03-12T03:12:57.800Z,7.90
2023-03-12T03:15:26.361Z,7.80
2023-03-12T03:17:54.682Z,7.80
2023-03-12T03:20:24.764Z,7.80
2023-03-12T03:22:53.240Z,7.80
2023-03-12T03:25:23.742Z,7.80
2023-03-12T03:27:52.062Z,7.90
2023-03-12T03:30:22.438Z,7.80
2023-03-12T03:32:51.031Z,7.90
2023-03-12T03:35:19.837Z,7.90
2023-03-12T03:37:48.087Z,7.90
2023-03-12T03:40:16.376Z,7.90
2023-03-12T03:42:44.676Z,7.90
2023-03-12T03:45:13.106Z,7.90
2023-03-12T03:47:42.851Z,7.90
2023-03-12T03:50:12.713Z,7.90
2023-03-12T03:52:41.017Z,8.00
2023-03-12T03:55:10.091Z,8.00
2023-03-12T03:57:38.401Z,8.00
2023-03-12T04:00:09.948Z,8.00
2023-03-12T04:02:38.262Z,8.00
2023-03-12T04:05:08.847Z,8.10
2023-03-12T04:07:37.228Z,8.10
2023-03-12T04:10:06.206Z,8.10
2023-03-12T04:12:34.516Z,8.10
2023-03-12T04:15:02.916Z,8.10
2023-03-12T04:17:31.258Z,8.10
2023-03-12T04:19:59.596Z,8.10
2023-03-12T04:22:29.221Z,8.10
2023-03-12T04:24:57.592Z,8.10
2023-03-12T04:27:25.883Z,8.10
2023-03-12T04:29:54.205Z,8.10
2023-03-12T04:32:22.624Z,8.10
2023-03-12T04:34:50.933Z,8.10
2023-03-12T04:37:19.256Z,8.10
2023-03-12T04:39:49.105Z,8.10
2023-03-12T04:42:17.344Z,8.00
2023-03-12T04:44:45.681Z,8.00
2023-03-12T04:47:13.951Z,7.90
2023-03-12T04:49:42.270Z,7.90
2023-03-12T04:52:10.631Z,7.80
2023-03-12T04:54:38.928Z,7.80
2023-03-12T04:57:08.654Z,7.80
2023-03-12T04:59:37.032Z,7.70
2023-03-12T05:02:05.425Z,7.70
2023-03-12T05:04:33.899Z,7.70
2023-03-12T05:07:02.197Z,7.70
2023-03-12T05:09:30.699Z,7.70
2023-03-12T05:11:58.986Z,7.70
2023-03-12T05:14:28.773Z,7.80
2023-03-12T05:16:57.089Z,7.80
2023-03-12T05:19:25.344Z,7.80
2023-03-12T05:21:53.630Z,7.80
2023-03-12T05:24:22.772Z,7.80
2023-03-12T05:26:51.138Z,7.80
2023-03-12T05:29:19.451Z,7.80
2023-03-12T05:31:50.044Z,7.80
2023-03-12T05:34:18.631Z,7.80
2023-03-12T05:36:47.686Z,7.90
2023-03-12T05:39:15.919Z,7.90
2023-03-12T05:41:44.192Z,7.90
2023-03-12T05:44:13.533Z,7.90
2023-03-12T05:46:41.828Z,8.00
2023-03-12T05:49:11.713Z,8.00
2023-03-12T05:51:40.050Z,8.00
2023-03-12T05:54:08.497Z,8.10
2023-03-12T05:56:38.300Z,8.10
2023-03-12T05:59:07.446Z,8.10
2023-03-12T06:01:35.724Z,8.10
2023-03-12T06:04:04.092Z,8.20
2023-03-12T06:06:38.528Z,8.20
2023-03-12T06:09:07.315Z,8.20
2023-03-12T06:11:36.228Z,8.30
2023-03-12T06:14:04.849Z,8.30
2023-03-12T06:16:33.350Z,8.40
2023-03-12T06:19:04.209Z,8.50
2023-03-12T06:21:36.075Z,8.60
2023-03-12T06:24:04.792Z,8.60
2023-03-12T06:26:33.106Z,8.60
2023-03-12T06:29:02.597Z,8.70
2023-03-12T06:31:31.003Z,8.70
2023-03-12T06:33:59.385Z,8.80
2023-03-12T06:36:27.734Z,8.90
2023-03-12T06:38:57.543Z,8.90
2023-03-12T06:41:25.835Z,9.00
2023-03-12T06:43:54.321Z,9.00
2023-03-12T06:46:25.318Z,9.10
2023-03-12T06:48:53.692Z,9.20
2023-03-12T06:51:22.226Z,9.30
2023-03-12T06:53:50.556Z,9.30
2023-03-12T06:56:20.505Z,9.40
2023-03-12T06:58:48.899Z,9.50
2023-03-12T07:01:17.254Z,9.70
2023-03-12T07:03:45.710Z,9.80
2023-03-12T07:06:15.738Z,9.80
2023-03-12T07:08:44.491Z,10.00
2023-03-12T07:11:13.765Z,10.10
2023-03-12T07:13:43.692Z,10.20
2023-03-12T07:16:12.421Z,10.40
2023-03-12T07:18:40.751Z,10.40
2023-03-12T07:21:09.107Z,10.60
2023-03-12T07:23:37.445Z,10.70
2023-03-12T07:26:06.443Z,10.80
2023-03-12T07:28:34.728Z,10.90
2023-03-12T07:31:05.640Z,11.00
2023-03-12T07:33:34.423Z,11.10
2023-03-12T07:36:02.992Z,11.20
2023-03-12T07:38:31.569Z,11.30
2023-03-12T07:41:00.422Z,11.40
2023-03-12T07:43:29.136Z,11.50
2023-03-12T07:45:57.539Z,11.50
2023-03-12T07:48:27.404Z,11.70
2023-03-12T07:50:55.716Z,11.80
2023-03-12T07:53:24.054Z,11.90
2023-03-12T07:55:52.548Z,12.00
2023-03-12T07:58:20.961Z,12.20
2023-03-12T08:00:49.482Z,12.20
2023-03-12T08:03:18.198Z,12.30
2023-03-12T08:05:57.926Z,12.40
2023-03-12T08:08:26.494Z,12.50
2023-03-12T08:10:55.380Z,12.50
2023-03-12T08:13:24.442Z,12.50
2023-03-12T08:15:54.087Z,12.60
2023-03-12T08:18:23.289Z,12.60
2023-03-12T08:20:54.076Z,12.70
2023-03-12T08:23:23.224Z,12.70
2023-03-12T08:25:52.261Z,12.70
2023-03-12T08:28:22.803Z,12.80
2023-03-12T08:30:53.087Z,12.80
2023-03-12T08:33:21.811Z,12.80
2023-03-12T08:35:52.351Z,12.80
2023-03-12T08:38:21.225Z,12.80
2023-03-12T08:40:56.424Z,12.90
2023-03-12T08:43:24.759Z,12.90
2023-03-12T08:45:56.117Z,12.90
2023-03-12T08:48:24.493Z,12.90
2023-03-12T08:50:56.882Z,13.00
2023-03-12T08:53:25.270Z,13.00
2023-03-12T08:55:54.269Z,13.00
2023-03-12T08:58:23.244Z,13.10
2023-03-12T09:00:51.876Z,13.00
2023-03-12T09:03:21.705Z,13.00
2023-03-12T09:05:50.988Z,13.00
2023-03-12T09:08:20.672Z,13.00
2023-03-12T09:10:50.759Z,13.00
2023-03-12T09:13:19.228Z,13.00
2023-03-12T09:15:47.671Z,13.00
2023-03-12T09:18:16.318Z,13.00
2023-03-12T09:20:45.273Z,13.00
2023-03-12T09:23:13.691Z,13.00
2023-03-12T09:25:47.308Z,13.10
2023-03-12T09:28:16.689Z,13.10
2023-03-12T09:30:45.271Z,13.20
2023-03-12T09:33:15.227Z,13.20
2023-03-12T09:35:43.854Z,13.30
2023-03-12T09:38:15.216Z,13.30
2023-03-12T09:40:48.677Z,13.40
2023-03-12T09:43:23.668Z,13.40
2023-03-12T09:45:52.805Z,13.40
2023-03-12T09:48:38.639Z,13.40
2023-03-12T09:51:18.060Z,13.40
2023-03-12T09:53:49.695Z,13.50
2023-03-12T09:56:21.925Z,13.60
2023-03-12T09:58:54.663Z,13.60
2023-03-12T10:01:37.739Z,13.70
2023-03-12T10:04:25.309Z,13.80
2023-03-12T10:07:02.197Z,13.80
2023-03-12T10:09:57.199Z,13.80
2023-03-12T10:12:34.194Z,13.80
2023-03-12T10:15:25.368Z,13.80
2023-03-12T10:18:06.406Z,13.70
2023-03-12T10:20:53.483Z,13.70
2023-03-12T10:23:33.309Z,13.80
2023-03-12T10:26:07.835Z,13.80
2023-03-12T10:28:42.312Z,13.80
2023-03-12T10:31:19.602Z,13.80
2023-03-12T10:33:52.444Z,13.90
2023-03-12T10:36:23.947Z,14.00
2023-03-12T10:38:52.268Z,13.90
2023-03-12T10:41:22.933Z,14.00
2023-03-12T10:43:54.681Z,14.00
2023-03-12T10:46:47.884Z,14.10
2023-03-12T10:49:34.044Z,14.10
2023-03-12T10:52:06.322Z,14.10
2023-03-12T10:54:37.744Z,14.20
2023-03-12T10:57:06.711Z,14.30
2023-03-12T10:59:38.260Z,14.30
2023-03-12T11:02:31.988Z,14.40
2023-03-12T11:05:02.175Z,14.40
2023-03-12T11:07:33.550Z,14.50
2023-03-12T11:10:20.968Z,14.50
2023-03-12T11:13:01.495Z,14.50
2023-03-12T11:15:39.090Z,14.50
2023-03-12T11:18:25.327Z,14.60
2023-03-12T11:20:56.572Z,14.60
2023-03-12T11:23:28.388Z,14.70
2023-03-12T11:26:00.594Z,14.70
2023-03-12T11:28:37.752Z,14.60
2023-03-12T11:31:11.370Z,14.60
2023-03-12T11:33:39.732Z,14.60
2023-03-12T11:36:30.330Z,14.60
2023-03-12T11:39:08.434Z,14.60
2023-03-12T11:42:01.929Z,14.70
2023-03-12T11:44:39.412Z,14.70
2023-03-12T11:47:24.600Z,14.80
2023-03-12T11:50:16.364Z,14.80
2023-03-12T11:52:56.614Z,14.90
2023-03-12T11:55:38.027Z,14.90
2023-03-12T11:58:25.962Z,15.00
2023-03-12T12:00:58.386Z,15.10
2023-03-12T12:03:56.255Z,15.20
2023-03-12T12:06:32.967Z,15.30
2023-03-12T12:09:14.348Z,15.40
2023-03-12T12:11:54.693Z,15.50
2023-03-12T12:14:35.992Z,15.50
2023-03-12T12:17:14.919Z,15.60
2023-03-12T12:20:00.476Z,15.60
2023-03-12T12:22:40.148Z,15.70
2023-03-12T12:25:26.533Z,15.70
2023-03-12T12:28:14.383Z,15.70
2023-03-12T12:30:56.025Z,15.80
2023-03-12T12:33:40.881Z,15.90
2023-03-12T12:36:10.564Z,16.00
2023-03-12T12:38:46.057Z,16.10
2023-03-12T12:41:18.022Z,16.20
2023-03-12T12:43:50.473Z,16.30
2023-03-12T12:46:21.262Z,16.30
2023-03-12T12:48:53.949Z,16.40
2023-03-12T12:51:25.948Z,16.50
2023-03-12T12:54:02.512Z,16.50
2023-03-12T12:56:34.540Z,16.60
2023-03-12T12:59:31.785Z,16.80
2023-03-12T13:02:02.357Z,17.00
2023-03-12T13:04:35.039Z,17.00
2023-03-12T13:07:05.563Z,17.10
2023-03-12T13:09:41.876Z,17.20
2023-03-12T13:12:17.521Z,17.40
2023-03-12T13:14:47.428Z,17.50
2023-03-12T13:18:02.516Z,17.60
2023-03-12T13:20:35.650Z,17.70
2023-03-12T13:23:25.143Z,17.80
2023-03-12T13:26:02.373Z,17.90
2023-03-12T13:28:37.408Z,18.00
2023-03-12T13:31:39.398Z,18.20
2023-03-12T13:34:41.514Z,18.50
2023-03-12T13:37:22.116Z,19.10
2023-03-12T13:39:52.110Z,19.80
2023-03-12T13:42:43.009Z,20.60
2023-03-12T13:45:27.183Z,21.20
2023-03-12T13:48:00.104Z,21.60
2023-03-12T13:50:29.647Z,22.10
2023-03-12T13:53:05.466Z,22.80
2023-03-12T13:55:35.562Z,23.60
2023-03-12T13:58:10.003Z,23.70
2023-03-12T14:00:42.601Z,24.30
2023-03-12T14:03:17.792Z,24.90
2023-03-12T14:05:51.779Z,25.10
2023-03-12T14:08:40.526Z,25.40
2023-03-12T14:11:34.718Z,26.10
2023-03-12T14:14:34.198Z,25.70
2023-03-12T14:17:05.473Z,25.10
2023-03-12T14:19:36.537Z,24.20
2023-03-12T14:22:08.717Z,23.80
2023-03-12T14:24:40.964Z,23.60
2023-03-12T14:27:15.864Z,23.50
2023-03-12T14:29:49.598Z,23.50
2023-03-12T14:32:21.024Z,23.30
2023-03-12T14:34:55.531Z,22.90
2023-03-12T14:37:29.296Z,22.50
2023-03-12T14:40:00.698Z,22.10
2023-03-12T14:42:30.981Z,21.70
2023-03-12T14:45:04.766Z,21.20
2023-03-12T14:47:41.402Z,20.80
2023-03-12T14:50:18.967Z,20.50
2023-03-12T14:52:47.277Z,20.50
2023-03-12T14:55:18.684Z,20.50
2023-03-12T14:57:47.304Z,20.60
2023-03-12T15:00:24.674Z,20.90
2023-03-12T15:02:55.874Z,21.30
2023-03-12T15:05:25.013Z,21.10
2023-03-12T15:07:57.626Z,20.50
2023-03-12T15:10:28.002Z,20.30
2023-03-12T15:12:58.938Z,20.20
2023-03-12T15:15:37.813Z,20.60
2023-03-12T15:18:08.705Z,20.20
2023-03-12T15:20:37.627Z,19.80
2023-03-12T15:23:07.020Z,19.40
2023-03-12T15:25:36.233Z,19.00
2023-03-12T15:28:08.423Z,18.70
2023-03-12T15:30:40.003Z,18.40
2023-03-12T15:33:12.986Z,18.10
2023-03-12T15:35:43.966Z,17.80
2023-03-12T15:38:17.192Z,17.50
2023-03-12T15:40:51.220Z,17.30
2023-03-12T15:43:21.933Z,17.10
2023-03-12T15:46:00.024Z,16.90
2023-03-12T15:48:31.344Z,16.70
2023-03-12T15:51:00.341Z,16.50
2023-03-12T15:53:31.664Z,16.30
2023-03-12T15:56:05.624Z,16.10
2023-03-12T15:58:35.628Z,15.90
2023-03-12T16:01:15.874Z,15.70
2023-03-12T16:03:46.456Z,15.60
2023-03-12T16:06:17.299Z,15.40
2023-03-12T16:08:49.765Z,15.30
2023-03-12T16:11:20.718Z,15.20
2023-03-12T16:13:50.701Z,15.10
2023-03-12T16:16:20.839Z,15.00
2023-03-12T16:18:49.223Z,14.90
2023-03-12T16:21:17.578Z,14.80
2023-03-12T16:23:46.000Z,14.70
2023-03-12T16:26:15.614Z,14.60
2023-03-12T16:28:44.128Z,14.50
2023-03-12T16:31:13.701Z,14.40
2023-03-12T16:33:43.777Z,14.30
2023-03-12T16:36:17.021Z,14.20
2023-03-12T16:38:45.876Z,14.10
2023-03-12T16:41:16.640Z,14.00
2023-03-12T16:43:49.714Z,13.90
2023-03-12T16:46:20.231Z,13.80
2023-03-12T16:48:53.152Z,13.80
2023-03-12T16:51:21.916Z,13.70
2023-03-12T16:54:01.973Z,13.60
2023-03-12T16:56:37.372Z,13.50
2023-03-12T16:59:08.371Z,13.50
2023-03-12T17:01:38.152Z,13.40
2023-03-12T17:04:07.870Z,13.30
2023-03-12T17:06:36.874Z,13.30
2023-03-12T17:09:06.101Z,13.30
2023-03-12T17:11:34.514Z,13.20
2023-03-12T17:14:05.885Z,13.10
2023-03-12T17:16:34.146Z,13.10
2023-03-12T17:19:04.052Z,13.00
2023-03-12T17:21:33.772Z,12.90
2023-03-12T17:24:02.101Z,12.90
2023-03-12T17:26:30.433Z,12.80
2023-03-12T17:28:58.777Z,12.70
2023-03-12T17:31:27.174Z,12.70
2023-03-12T17:33:55.563Z,12.60
2023-03-12T17:36:23.995Z,12.60
2023-03-12T17:38:53.632Z,12.60
2023-03-12T17:41:26.976Z,12.50
2023-03-12T17:43:58.562Z,12.40
2023-03-12T17:46:26.986Z,12.40
2023-03-12T17:48:55.357Z,12.30
2023-03-12T17:51:23.862Z,12.30
2023-03-12T17:53:53.557Z,12.20
2023-03-12T17:56:21.885Z,12.20
2023-03-12T17:58:50.328Z,12.10
2023-03-12T18:01:19.134Z,12.10
2023-03-12T18:03:47.613Z,12.00
2023-03-12T18:06:17.072Z,12.00
2023-03-12T18:08:47.015Z,11.90
2023-03-12T18:11:16.959Z,11.80
2023-03-12T18:13:45.224Z,11.80
2023-03-12T18:16:13.699Z,11.70
2023-03-12T18:18:42.132Z,11.70
2023-03-12T18:21:10.446Z,11.70
2023-03-12T18:23:38.718Z,11.60
2023-03-12T18:26:07.275Z,11.60
2023-03-12T18:28:37.001Z,11.60
2023-03-12T18:31:05.580Z,11.50
2023-03-12T18:33:35.021Z,11.50
2023-03-12T18:36:03.962Z,11.50
2023-03-12T18:38:32.973Z,11.40
2023-03-12T18:41:06.670Z,11.40
2023-03-12T18:43:36.896Z,11.40
2023-03-12T18:46:06.453Z,11.30
2023-03-12T18:48:34.873Z,11.40
2023-03-12T18:51:03.458Z,11.30
2023-03-12T18:53:33.233Z,11.30
2023-03-12T18:56:01.578Z,11.30
2023-03-12T18:58:30.286Z,11.30
2023-03-12T19:01:02.030Z,11.30
2023-03-12T19:03:33.917Z,11.20
2023-03-12T19:06:04.418Z,11.20
2023-03-12T19:08:32.766Z,11.20
2023-03-12T19:11:01.683Z,11.20
2023-03-12T19:13:29.975Z,11.20
2023-03-12T19:16:04.539Z,11.20
2023-03-12T19:18:33.107Z,11.20
2023-03-12T19:21:02.364Z,11.20
2023-03-12T19:23:31.116Z,11.20
2023-03-12T19:25:59.437Z,11.20
2023-03-12T19:28:27.761Z,11.20
2023-03-12T19:31:01.937Z,11.20
2023-03-12T19:33:30.591Z,11.10
2023-03-12T19:35:59.205Z,11.10
2023-03-12T19:38:27.724Z,11.10
2023-03-12T19:40:57.231Z,11.20
2023-03-12T19:43:26.169Z,11.20
2023-03-12T19:45:55.843Z,11.10
2023-03-12T19:48:26.360Z,11.10
2023-03-12T19:50:56.040Z,11.10
2023-03-12T19:53:24.946Z,11.10
2023-03-12T19:55:53.304Z,11.10
2023-03-12T19:58:21.651Z,11.10
2023-03-12T20:00:50.533Z,11.20
2023-03-12T20:03:20.693Z,11.20
2023-03-12T20:05:51.097Z,11.20
2023-03-12T20:08:21.074Z,11.20
2023-03-12T20:10:49.915Z,11.20
2023-03-12T20:13:18.711Z,11.20
2023-03-12T20:15:48.386Z,11.20
2023-03-12T20:18:17.576Z,11.20
2023-03-12T20:20:47.592Z,11.20
2023-03-12T20:23:17.282Z,11.20
2023-03-12T20:25:48.916Z,11.20
2023-03-12T20:28:18.368Z,11.20
2023-03-12T20:30:46.684Z,11.20
2023-03-12T20:33:15.013Z,11.30
2023-03-12T20:35:43.425Z,11.30
2023-03-12T20:38:11.893Z,11.30
2023-03-12T20:40:45.402Z,11.30
2023-03-12T20:43:13.804Z,11.30
2023-03-12T20:45:42.326Z,11.30
2023-03-12T20:48:12.157Z,11.30
2023-03-12T20:50:40.406Z,11.30
2023-03-12T20:53:09.065Z,11.30
2023-03-12T20:55:39.603Z,11.30
2023-03-12T20:58:09.420Z,11.30
2023-03-12T21:00:37.781Z,11.30
2023-03-12T21:03:06.033Z,11.30
2023-03-12T21:05:34.413Z,11.30
2023-03-12T21:08:02.711Z,11.20
2023-03-12T21:10:31.692Z,11.30
2023-03-12T21:13:00.187Z,11.30
2023-03-12T21:15:29.898Z,11.20
2023-03-12T21:17:58.203Z,11.20
2023-03-12T21:20:26.659Z,11.30
2023-03-12T21:22:54.941Z,11.30
2023-03-12T21:25:24.361Z,11.30
2023-03-12T21:27:52.693Z,11.20
2023-03-12T21:30:21.350Z,11.20
2023-03-12T21:32:51.162Z,11.20
2023-03-12T21:35:20.089Z,11.30
2023-03-12T21:37:48.453Z,11.30
2023-03-12T21:40:17.742Z,11.30
2023-03-12T21:42:46.033Z,11.30
2023-03-12T21:45:14.343Z,11.30
2023-03-12T21:47:42.677Z,11.20
2023-03-12T21:50:13.202Z,11.20
2023-03-12T21:52:43.934Z,11.20
2023-03-12T21:55:12.553Z,11.20
2023-03-12T21:57:40.892Z,11.20
2023-03-12T22:00:12.967Z,11.10
2023-03-12T22:02:41.840Z,11.10
2023-03-12T22:05:12.629Z,11.10
2023-03-12T22:07:41.154Z,11.10
2023-03-12T22:10:12.079Z,11.00
2023-03-12T22:12:40.621Z,11.00
2023-03-12T22:15:10.103Z,11.00
2023-03-12T22:17:38.401Z,10.90
2023-03-12T22:20:08.023Z,10.90
2023-03-12T22:22:37.759Z,10.90
2023-03-12T22:25:06.799Z,10.80
2023-03-12T22:27:35.116Z,10.80
2023-03-12T22:30:03.430Z,10.70
2023-03-12T22:32:32.372Z,10.70
2023-03-12T22:35:01.916Z,10.60
2023-03-12T22:37:30.190Z,10.60
2023-03-12T22:40:01.591Z,10.50
2023-03-12T22:42:29.970Z,10.50
2023-03-12T22:44:58.231Z,10.40
2023-03-12T22:47:26.546Z,10.40
2023-03-12T22:49:57.652Z,10.40
2023-03-12T22:52:25.999Z,10.30
2023-03-12T22:54:54.295Z,10.20
2023-03-12T22:57:24.082Z,10.20
2023-03-12T22:59:52.366Z,10.20
2023-03-12T23:02:20.683Z,10.10
2023-03-12T23:04:49.087Z,10.10
2023-03-12T23:07:17.709Z,10.00
2023-03-12T23:09:46.478Z,9.90
2023-03-12T23:12:14.779Z,9.90
2023-03-12T23:14:44.777Z,9.80
2023-03-12T23:17:13.048Z,9.80
2023-03-12T23:19:42.795Z,9.70
2023-03-12T23:22:11.272Z,9.70
2023-03-12T23:24:39.594Z,9.70
2023-03-12T23:27:08.189Z,9.60
2023-03-12T23:29:36.567Z,9.60
2023-03-12T23:32:07.227Z,9.60
2023-03-12T23:34:35.991Z,9.50
2023-03-12T23:37:04.448Z,9.50
2023-03-12T23:39:35.352Z,9.50
2023-03-12T23:42:08.078Z,9.40
2023-03-12T23:44:36.497Z,9.40
2023-03-12T23:47:06.470Z,9.40
2023-03-12T23:49:35.188Z,9.30
2023-03-12T23:52:04.370Z,9.30
2023-03-12T23:54:32.670Z,9.20
2023-03-12T23:57:00.949Z,9.20
2023-03-12T23:59:29.266Z,9.20
